sensor_id;sensor_type;location;lat;lon;timestamp;temperature;humidity
4651;DHT22;2338;49.602;8.722;2022-10-16T00:02:25;16.60;99.90
4651;DHT22;2338;49.602;8.722;2022-10-16T00:05:11;16.50;99.90
4651;DHT22;2338;49.602;8.722;2022-10-16T00:07:58;16.50;99.90
4651;DHT22;2338;49.602;8.722;2022-10-16T00:10:44;16.50;99.90
4651;DHT22;2338;49.602;8.722;2022-10-16T00:13:29;16.50;99.90
4651;DHT22;2338;49.602;8.722;2022-10-16T00:16:16;16.60;99.90
4651;DHT22;2338;49.602;8.722;2022-10-16T00:19:02;16.50;99.90
4651;DHT22;2338;49.602;8.722;2022-10-16T00:21:48;16.50;99.90
4651;DHT22;2338;49.602;8.722;2022-10-16T00:24:35;16.60;99.90
4651;DHT22;2338;49.602;8.722;2022-10-16T00:27:21;16.60;99.90
4651;DHT22;2338;49.602;8.722;2022-10-16T00:30:08;16.70;99.90
4651;DHT22;2338;49.602;8.722;2022-10-16T00:32:54;16.70;99.90
4651;DHT22;2338;49.602;8.722;2022-10-16T00:35:39;16.70;99.90
4651;DHT22;2338;49.602;8.722;2022-10-16T00:38:25;16.70;99.90
4651;DHT22;2338;49.602;8.722;2022-10-16T00:41:14;16.70;99.90
4651;DHT22;2338;49.602;8.722;2022-10-16T00:44:01;16.80;99.90
4651;DHT22;2338;49.602;8.722;2022-10-16T00:46:47;16.70;99.90
4651;DHT22;2338;49.602;8.722;2022-10-16T00:49:33;16.70;99.90
4651;DHT22;2338;49.602;8.722;2022-10-16T00:52:19;16.70;99.90
4651;DHT22;2338;49.602;8.722;2022-10-16T00:55:06;16.70;99.90
4651;DHT22;2338;49.602;8.722;2022-10-16T00:57:54;16.60;99.90
4651;DHT22;2338;49.602;8.722;2022-10-16T01:00:39;16.70;99.90
4651;DHT22;2338;49.602;8.722;2022-10-16T01:03:28;16.80;99.90
4651;DHT22;2338;49.602;8.722;2022-10-16T01:06:23;16.70;99.90
4651;DHT22;2338;49.602;8.722;2022-10-16T01:09:14;16.70;99.90
4651;DHT22;2338;49.602;8.722;2022-10-16T01:12:08;16.70;99.90
4651;DHT22;2338;49.602;8.722;2022-10-16T01:14:59;16.80;99.90
4651;DHT22;2338;49.602;8.722;2022-10-16T01:17:51;16.80;99.90
4651;DHT22;2338;49.602;8.722;2022-10-16T01:20:44;16.80;99.90
4651;DHT22;2338;49.602;8.722;2022-10-16T01:23:43;16.70;99.90
4651;DHT22;2338;49.602;8.722;2022-10-16T01:26:44;16.70;99.90
4651;DHT22;2338;49.602;8.722;2022-10-16T01:29:40;16.70;99.90
4651;DHT22;2338;49.602;8.722;2022-10-16T01:32:33;16.60;99.90
4651;DHT22;2338;49.602;8.722;2022-10-16T01:35:23;16.60;99.90
4651;DHT22;2338;49.602;8.722;2022-10-16T01:38:12;16.60;99.90
4651;DHT22;2338;49.602;8.722;2022-10-16T01:41:05;16.60;99.90
4651;DHT22;2338;49.602;8.722;2022-10-16T01:43:57;16.60;99.90
4651;DHT22;2338;49.602;8.722;2022-10-16T01:46:48;16.60;99.90
4651;DHT22;2338;49.602;8.722;2022-10-16T01:49:36;16.60;99.90
4651;DHT22;2338;49.602;8.722;2022-10-16T01:52:25;16.60;99.90
4651;DHT22;2338;49.602;8.722;2022-10-16T01:55:16;16.60;99.90
4651;DHT22;2338;49.602;8.722;2022-10-16T01:58:04;16.60;99.90
4651;DHT22;2338;49.602;8.722;2022-10-16T02:00:53;16.60;99.90
4651;DHT22;2338;49.602;8.722;2022-10-16T02:03:42;16.60;99.90
4651;DHT22;2338;49.602;8.722;2022-10-16T02:06:30;16.60;99.90
4651;DHT22;2338;49.602;8.722;2022-10-16T02:09:15;16.70;99.90
4651;DHT22;2338;49.602;8.722;2022-10-16T02:12:08;16.70;99.90
4651;DHT22;2338;49.602;8.722;2022-10-16T02:14:54;16.70;99.90
4651;DHT22;2338;49.602;8.722;2022-10-16T02:17:40;16.70;99.90
4651;DHT22;2338;49.602;8.722;2022-10-16T02:20:28;16.70;99.90
4651;DHT22;2338;49.602;8.722;2022-10-16T02:23:21;16.60;99.90
4651;DHT22;2338;49.602;8.722;2022-10-16T02:26:13;16.60;99.90
4651;DHT22;2338;49.602;8.722;2022-10-16T02:29:03;16.60;99.90
4651;DHT22;2338;49.602;8.722;2022-10-16T02:31:53;16.70;99.90
4651;DHT22;2338;49.602;8.722;2022-10-16T02:34:41;16.70;99.90
4651;DHT22;2338;49.602;8.722;2022-10-16T02:37:28;16.70;99.90
4651;DHT22;2338;49.602;8.722;2022-10-16T02:40:15;16.70;99.90
4651;DHT22;2338;49.602;8.722;2022-10-16T02:43:04;16.60;99.90
4651;DHT22;2338;49.602;8.722;2022-10-16T02:45:49;16.60;99.90
4651;DHT22;2338;49.602;8.722;2022-10-16T02:48:35;16.50;99.90
4651;DHT22;2338;49.602;8.722;2022-10-16T02:51:21;16.30;99.90
4651;DHT22;2338;49.602;8.722;2022-10-16T02:54:08;16.40;99.90
4651;DHT22;2338;49.602;8.722;2022-10-16T02:56:54;16.40;99.90
4651;DHT22;2338;49.602;8.722;2022-10-16T02:59:39;16.40;99.90
4651;DHT22;2338;49.602;8.722;2022-10-16T03:02:26;16.50;99.90
4651;DHT22;2338;49.602;8.722;2022-10-16T03:05:11;16.50;99.90
4651;DHT22;2338;49.602;8.722;2022-10-16T03:07:57;16.50;99.90
4651;DHT22;2338;49.602;8.722;2022-10-16T03:10:45;16.40;99.90
4651;DHT22;2338;49.602;8.722;2022-10-16T03:13:31;16.40;99.90
4651;DHT22;2338;49.602;8.722;2022-10-16T03:16:17;16.40;99.90
4651;DHT22;2338;49.602;8.722;2022-10-16T03:19:03;16.50;99.90
4651;DHT22;2338;49.602;8.722;2022-10-16T03:21:48;16.50;99.90
4651;DHT22;2338;49.602;8.722;2022-10-16T03:24:34;16.50;99.90
4651;DHT22;2338;49.602;8.722;2022-10-16T03:27:21;16.50;99.90
4651;DHT22;2338;49.602;8.722;2022-10-16T03:30:08;16.50;99.90
4651;DHT22;2338;49.602;8.722;2022-10-16T03:32:57;16.50;99.90
4651;DHT22;2338;49.602;8.722;2022-10-16T03:35:43;16.40;99.90
4651;DHT22;2338;49.602;8.722;2022-10-16T03:38:36;16.30;99.90
4651;DHT22;2338;49.602;8.722;2022-10-16T03:41:21;16.40;99.90
4651;DHT22;2338;49.602;8.722;2022-10-16T03:44:08;16.40;99.90
4651;DHT22;2338;49.602;8.722;2022-10-16T03:46:53;16.40;99.90
4651;DHT22;2338;49.602;8.722;2022-10-16T03:49:39;16.40;99.90
4651;DHT22;2338;49.602;8.722;2022-10-16T03:52:25;16.40;99.90
4651;DHT22;2338;49.602;8.722;2022-10-16T03:55:10;16.40;99.90
4651;DHT22;2338;49.602;8.722;2022-10-16T03:57:56;16.40;99.90
4651;DHT22;2338;49.602;8.722;2022-10-16T04:00:44;16.40;99.90
4651;DHT22;2338;49.602;8.722;2022-10-16T04:03:30;16.40;99.90
4651;DHT22;2338;49.602;8.722;2022-10-16T04:06:16;16.40;99.90
4651;DHT22;2338;49.602;8.722;2022-10-16T04:09:01;16.40;99.90
4651;DHT22;2338;49.602;8.722;2022-10-16T04:11:47;16.40;99.90
4651;DHT22;2338;49.602;8.722;2022-10-16T04:14:33;16.30;99.90
4651;DHT22;2338;49.602;8.722;2022-10-16T04:17:20;16.40;99.90
4651;DHT22;2338;49.602;8.722;2022-10-16T04:20:06;16.40;99.90
4651;DHT22;2338;49.602;8.722;2022-10-16T04:22:52;16.40;99.90
4651;DHT22;2338;49.602;8.722;2022-10-16T04:25:38;16.40;99.90
4651;DHT22;2338;49.602;8.722;2022-10-16T04:28:24;16.50;99.90
4651;DHT22;2338;49.602;8.722;2022-10-16T04:31:09;16.40;99.90
4651;DHT22;2338;49.602;8.722;2022-10-16T04:33:56;16.30;99.90
4651;DHT22;2338;49.602;8.722;2022-10-16T04:36:42;16.30;99.90
4651;DHT22;2338;49.602;8.722;2022-10-16T04:39:27;16.30;99.90
4651;DHT22;2338;49.602;8.722;2022-10-16T04:42:13;16.40;99.90
4651;DHT22;2338;49.602;8.722;2022-10-16T04:44:59;16.50;99.90
4651;DHT22;2338;49.602;8.722;2022-10-16T04:47:44;16.40;99.90
4651;DHT22;2338;49.602;8.722;2022-10-16T04:50:32;16.40;99.90
4651;DHT22;2338;49.602;8.722;2022-10-16T04:53:17;16.40;99.90
4651;DHT22;2338;49.602;8.722;2022-10-16T04:56:03;16.40;99.90
4651;DHT22;2338;49.602;8.722;2022-10-16T04:58:49;16.20;99.90
4651;DHT22;2338;49.602;8.722;2022-10-16T05:01:34;16.20;99.90
4651;DHT22;2338;49.602;8.722;2022-10-16T05:04:20;16.10;99.90
4651;DHT22;2338;49.602;8.722;2022-10-16T05:07:07;16.20;99.90
4651;DHT22;2338;49.602;8.722;2022-10-16T05:09:52;16.20;99.90
4651;DHT22;2338;49.602;8.722;2022-10-16T05:12:38;16.10;99.90
4651;DHT22;2338;49.602;8.722;2022-10-16T05:15:24;16.10;99.90
4651;DHT22;2338;49.602;8.722;2022-10-16T05:18:10;16.10;99.90
4651;DHT22;2338;49.602;8.722;2022-10-16T05:20:55;16.10;99.90
4651;DHT22;2338;49.602;8.722;2022-10-16T05:23:42;16.10;99.90
4651;DHT22;2338;49.602;8.722;2022-10-16T05:26:28;16.10;99.90
4651;DHT22;2338;49.602;8.722;2022-10-16T05:29:14;15.90;99.90
4651;DHT22;2338;49.602;8.722;2022-10-16T05:31:59;16.00;99.90
4651;DHT22;2338;49.602;8.722;2022-10-16T05:34:45;16.00;99.90
4651;DHT22;2338;49.602;8.722;2022-10-16T05:37:31;15.90;99.90
4651;DHT22;2338;49.602;8.722;2022-10-16T05:40:18;16.00;99.90
4651;DHT22;2338;49.602;8.722;2022-10-16T05:43:04;15.90;99.90
4651;DHT22;2338;49.602;8.722;2022-10-16T05:45:56;15.90;99.90
4651;DHT22;2338;49.602;8.722;2022-10-16T05:48:43;15.90;99.90
4651;DHT22;2338;49.602;8.722;2022-10-16T05:51:29;15.80;99.90
4651;DHT22;2338;49.602;8.722;2022-10-16T05:54:15;15.90;99.90
4651;DHT22;2338;49.602;8.722;2022-10-16T05:57:02;15.80;99.90
4651;DHT22;2338;49.602;8.722;2022-10-16T05:59:50;15.70;99.90
4651;DHT22;2338;49.602;8.722;2022-10-16T06:02:35;15.70;99.90
4651;DHT22;2338;49.602;8.722;2022-10-16T06:05:21;15.80;99.90
4651;DHT22;2338;49.602;8.722;2022-10-16T06:08:06;15.80;99.90
4651;DHT22;2338;49.602;8.722;2022-10-16T06:11:00;15.80;99.90
4651;DHT22;2338;49.602;8.722;2022-10-16T06:13:51;15.90;99.90
4651;DHT22;2338;49.602;8.722;2022-10-16T06:16:37;16.00;99.90
4651;DHT22;2338;49.602;8.722;2022-10-16T06:19:23;16.10;99.90
4651;DHT22;2338;49.602;8.722;2022-10-16T06:22:08;16.00;99.90
4651;DHT22;2338;49.602;8.722;2022-10-16T06:24:54;16.00;99.90
4651;DHT22;2338;49.602;8.722;2022-10-16T06:27:39;16.10;99.90
4651;DHT22;2338;49.602;8.722;2022-10-16T06:30:27;16.10;99.90
4651;DHT22;2338;49.602;8.722;2022-10-16T06:33:12;16.10;99.90
4651;DHT22;2338;49.602;8.722;2022-10-16T06:36:01;16.10;99.90
4651;DHT22;2338;49.602;8.722;2022-10-16T06:38:47;16.10;99.90
4651;DHT22;2338;49.602;8.722;2022-10-16T06:41:33;16.10;99.90
4651;DHT22;2338;49.602;8.722;2022-10-16T06:44:19;16.10;99.90
4651;DHT22;2338;49.602;8.722;2022-10-16T06:47:06;16.10;99.90
4651;DHT22;2338;49.602;8.722;2022-10-16T06:49:52;16.10;99.90
4651;DHT22;2338;49.602;8.722;2022-10-16T06:52:38;16.20;99.90
4651;DHT22;2338;49.602;8.722;2022-10-16T06:55:24;16.20;99.90
4651;DHT22;2338;49.602;8.722;2022-10-16T06:58:09;16.20;99.90
4651;DHT22;2338;49.602;8.722;2022-10-16T07:00:56;16.30;99.90
4651;DHT22;2338;49.602;8.722;2022-10-16T07:03:45;16.30;99.90
4651;DHT22;2338;49.602;8.722;2022-10-16T07:06:33;16.30;99.90
4651;DHT22;2338;49.602;8.722;2022-10-16T07:09:19;16.40;99.90
4651;DHT22;2338;49.602;8.722;2022-10-16T07:12:04;16.40;99.90
4651;DHT22;2338;49.602;8.722;2022-10-16T07:14:50;16.40;99.90
4651;DHT22;2338;49.602;8.722;2022-10-16T07:17:38;16.50;99.90
4651;DHT22;2338;49.602;8.722;2022-10-16T07:20:25;16.50;99.90
4651;DHT22;2338;49.602;8.722;2022-10-16T07:23:11;16.50;99.90
4651;DHT22;2338;49.602;8.722;2022-10-16T07:25:57;16.50;99.90
4651;DHT22;2338;49.602;8.722;2022-10-16T07:28:43;16.40;99.90
4651;DHT22;2338;49.602;8.722;2022-10-16T07:31:29;16.50;99.90
4651;DHT22;2338;49.602;8.722;2022-10-16T07:34:16;16.60;99.90
4651;DHT22;2338;49.602;8.722;2022-10-16T07:37:03;16.70;99.90
4651;DHT22;2338;49.602;8.722;2022-10-16T07:39:49;16.70;99.90
4651;DHT22;2338;49.602;8.722;2022-10-16T07:42:35;16.80;99.90
4651;DHT22;2338;49.602;8.722;2022-10-16T07:45:20;16.80;99.90
4651;DHT22;2338;49.602;8.722;2022-10-16T07:48:06;16.90;99.90
4651;DHT22;2338;49.602;8.722;2022-10-16T07:50:52;16.90;99.90
4651;DHT22;2338;49.602;8.722;2022-10-16T07:53:39;17.00;99.90
4651;DHT22;2338;49.602;8.722;2022-10-16T07:56:24;17.10;99.90
4651;DHT22;2338;49.602;8.722;2022-10-16T07:59:10;17.10;99.90
4651;DHT22;2338;49.602;8.722;2022-10-16T08:01:56;17.20;99.90
4651;DHT22;2338;49.602;8.722;2022-10-16T08:04:41;17.20;99.90
4651;DHT22;2338;49.602;8.722;2022-10-16T08:07:27;17.20;99.90
4651;DHT22;2338;49.602;8.722;2022-10-16T08:10:16;17.20;99.90
4651;DHT22;2338;49.602;8.722;2022-10-16T08:13:02;17.20;99.90
4651;DHT22;2338;49.602;8.722;2022-10-16T08:15:48;17.30;99.90
4651;DHT22;2338;49.602;8.722;2022-10-16T08:18:35;17.30;99.90
4651;DHT22;2338;49.602;8.722;2022-10-16T08:21:23;17.30;99.90
4651;DHT22;2338;49.602;8.722;2022-10-16T08:24:09;17.30;99.90
4651;DHT22;2338;49.602;8.722;2022-10-16T08:26:56;17.40;99.90
4651;DHT22;2338;49.602;8.722;2022-10-16T08:29:41;17.40;99.90
4651;DHT22;2338;49.602;8.722;2022-10-16T08:32:26;17.40;99.90
4651;DHT22;2338;49.602;8.722;2022-10-16T08:35:13;17.30;99.90
4651;DHT22;2338;49.602;8.722;2022-10-16T08:37:59;17.40;99.90
4651;DHT22;2338;49.602;8.722;2022-10-16T08:40:44;17.30;99.90
4651;DHT22;2338;49.602;8.722;2022-10-16T08:43:43;17.40;99.90
4651;DHT22;2338;49.602;8.722;2022-10-16T08:46:43;17.30;99.90
4651;DHT22;2338;49.602;8.722;2022-10-16T08:49:31;17.30;99.90
4651;DHT22;2338;49.602;8.722;2022-10-16T08:52:17;17.30;99.90
4651;DHT22;2338;49.602;8.722;2022-10-16T08:55:04;17.20;99.90
4651;DHT22;2338;49.602;8.722;2022-10-16T08:57:50;17.10;99.90
4651;DHT22;2338;49.602;8.722;2022-10-16T09:00:37;17.00;99.90
4651;DHT22;2338;49.602;8.722;2022-10-16T09:03:42;17.00;99.90
4651;DHT22;2338;49.602;8.722;2022-10-16T09:06:44;16.90;99.90
4651;DHT22;2338;49.602;8.722;2022-10-16T09:12:53;16.90;99.90
4651;DHT22;2338;49.602;8.722;2022-10-16T09:15:47;16.90;99.90
4651;DHT22;2338;49.602;8.722;2022-10-16T09:18:42;17.00;99.90
4651;DHT22;2338;49.602;8.722;2022-10-16T09:21:35;17.00;99.90
4651;DHT22;2338;49.602;8.722;2022-10-16T09:24:24;17.00;99.90
4651;DHT22;2338;49.602;8.722;2022-10-16T09:27:11;16.90;99.90
4651;DHT22;2338;49.602;8.722;2022-10-16T09:29:57;16.90;99.90
4651;DHT22;2338;49.602;8.722;2022-10-16T09:32:47;16.90;99.90
4651;DHT22;2338;49.602;8.722;2022-10-16T09:35:37;17.00;99.90
4651;DHT22;2338;49.602;8.722;2022-10-16T09:38:26;17.10;99.90
4651;DHT22;2338;49.602;8.722;2022-10-16T09:41:16;17.20;99.90
4651;DHT22;2338;49.602;8.722;2022-10-16T09:44:04;17.30;99.90
4651;DHT22;2338;49.602;8.722;2022-10-16T09:47:01;17.40;99.90
4651;DHT22;2338;49.602;8.722;2022-10-16T09:49:56;17.60;99.90
4651;DHT22;2338;49.602;8.722;2022-10-16T09:52:43;17.80;99.90
4651;DHT22;2338;49.602;8.722;2022-10-16T09:55:29;17.90;99.90
4651;DHT22;2338;49.602;8.722;2022-10-16T09:58:15;17.90;99.90
4651;DHT22;2338;49.602;8.722;2022-10-16T10:01:00;18.00;99.90
4651;DHT22;2338;49.602;8.722;2022-10-16T10:03:47;18.10;99.90
4651;DHT22;2338;49.602;8.722;2022-10-16T10:06:36;18.10;99.90
4651;DHT22;2338;49.602;8.722;2022-10-16T10:09:24;18.20;99.90
4651;DHT22;2338;49.602;8.722;2022-10-16T10:12:18;18.20;99.90
4651;DHT22;2338;49.602;8.722;2022-10-16T10:15:07;18.30;99.90
4651;DHT22;2338;49.602;8.722;2022-10-16T10:17:54;18.50;99.90
4651;DHT22;2338;49.602;8.722;2022-10-16T10:20:40;18.70;99.90
4651;DHT22;2338;49.602;8.722;2022-10-16T10:23:29;18.90;99.90
4651;DHT22;2338;49.602;8.722;2022-10-16T10:26:18;19.20;99.90
4651;DHT22;2338;49.602;8.722;2022-10-16T10:29:11;19.50;99.90
4651;DHT22;2338;49.602;8.722;2022-10-16T10:32:07;19.70;99.90
4651;DHT22;2338;49.602;8.722;2022-10-16T10:35:13;20.00;99.90
4651;DHT22;2338;49.602;8.722;2022-10-16T10:38:10;20.20;99.90
4651;DHT22;2338;49.602;8.722;2022-10-16T10:44:20;20.60;99.90
4651;DHT22;2338;49.602;8.722;2022-10-16T10:47:14;20.70;99.90
4651;DHT22;2338;49.602;8.722;2022-10-16T10:50:10;20.80;99.90
4651;DHT22;2338;49.602;8.722;2022-10-16T10:53:06;20.90;99.90
4651;DHT22;2338;49.602;8.722;2022-10-16T10:55:58;20.90;99.90
4651;DHT22;2338;49.602;8.722;2022-10-16T11:01:54;21.00;99.90
4651;DHT22;2338;49.602;8.722;2022-10-16T11:05:02;21.00;99.90
4651;DHT22;2338;49.602;8.722;2022-10-16T11:07:57;21.00;99.90
4651;DHT22;2338;49.602;8.722;2022-10-16T11:10:51;21.00;99.90
4651;DHT22;2338;49.602;8.722;2022-10-16T11:13:42;21.10;99.90
4651;DHT22;2338;49.602;8.722;2022-10-16T11:16:34;21.10;99.90
4651;DHT22;2338;49.602;8.722;2022-10-16T11:19:28;21.00;99.90
4651;DHT22;2338;49.602;8.722;2022-10-16T11:22:20;20.80;99.90
4651;DHT22;2338;49.602;8.722;2022-10-16T11:25:13;20.90;99.90
4651;DHT22;2338;49.602;8.722;2022-10-16T11:28:03;21.00;99.90
4651;DHT22;2338;49.602;8.722;2022-10-16T11:30:55;21.00;99.90
4651;DHT22;2338;49.602;8.722;2022-10-16T11:33:47;21.10;99.90
4651;DHT22;2338;49.602;8.722;2022-10-16T11:36:38;21.20;99.90
4651;DHT22;2338;49.602;8.722;2022-10-16T11:39:27;21.20;99.90
4651;DHT22;2338;49.602;8.722;2022-10-16T11:42:18;21.20;99.90
4651;DHT22;2338;49.602;8.722;2022-10-16T11:45:24;21.30;99.90
4651;DHT22;2338;49.602;8.722;2022-10-16T11:48:20;21.30;99.90
4651;DHT22;2338;49.602;8.722;2022-10-16T11:51:16;21.30;99.90
4651;DHT22;2338;49.602;8.722;2022-10-16T11:54:14;21.40;99.90
4651;DHT22;2338;49.602;8.722;2022-10-16T11:57:07;21.50;99.90
4651;DHT22;2338;49.602;8.722;2022-10-16T11:59:57;21.60;99.90
4651;DHT22;2338;49.602;8.722;2022-10-16T12:02:54;21.70;99.90
4651;DHT22;2338;49.602;8.722;2022-10-16T12:05:52;21.80;99.90
4651;DHT22;2338;49.602;8.722;2022-10-16T12:08:43;21.80;99.90
4651;DHT22;2338;49.602;8.722;2022-10-16T12:11:37;21.70;99.90
4651;DHT22;2338;49.602;8.722;2022-10-16T12:14:41;21.70;99.90
4651;DHT22;2338;49.602;8.722;2022-10-16T12:17:34;21.50;99.90
4651;DHT22;2338;49.602;8.722;2022-10-16T12:20:31;21.40;99.90
4651;DHT22;2338;49.602;8.722;2022-10-16T12:23:20;21.30;99.90
4651;DHT22;2338;49.602;8.722;2022-10-16T12:26:08;21.30;99.90
4651;DHT22;2338;49.602;8.722;2022-10-16T12:29:12;21.10;99.90
4651;DHT22;2338;49.602;8.722;2022-10-16T12:31:59;21.10;99.90
4651;DHT22;2338;49.602;8.722;2022-10-16T12:34:45;21.10;99.90
4651;DHT22;2338;49.602;8.722;2022-10-16T12:37:34;20.90;99.90
4651;DHT22;2338;49.602;8.722;2022-10-16T12:40:27;20.90;99.90
4651;DHT22;2338;49.602;8.722;2022-10-16T12:43:27;20.90;99.90
4651;DHT22;2338;49.602;8.722;2022-10-16T12:46:23;20.80;99.90
4651;DHT22;2338;49.602;8.722;2022-10-16T12:49:31;20.70;99.90
4651;DHT22;2338;49.602;8.722;2022-10-16T12:52:26;20.80;99.90
4651;DHT22;2338;49.602;8.722;2022-10-16T12:55:16;20.70;99.90
4651;DHT22;2338;49.602;8.722;2022-10-16T13:01:26;20.60;99.90
4651;DHT22;2338;49.602;8.722;2022-10-16T13:04:39;20.50;99.90
4651;DHT22;2338;49.602;8.722;2022-10-16T13:07:44;20.70;99.90
4651;DHT22;2338;49.602;8.722;2022-10-16T13:10:37;20.90;99.90
4651;DHT22;2338;49.602;8.722;2022-10-16T13:13:41;21.00;99.90
4651;DHT22;2338;49.602;8.722;2022-10-16T13:16:39;21.10;99.90
4651;DHT22;2338;49.602;8.722;2022-10-16T13:19:33;21.10;99.90
4651;DHT22;2338;49.602;8.722;2022-10-16T13:22:24;21.10;99.90
4651;DHT22;2338;49.602;8.722;2022-10-16T13:25:24;21.00;99.90
4651;DHT22;2338;49.602;8.722;2022-10-16T13:28:13;21.00;99.90
4651;DHT22;2338;49.602;8.722;2022-10-16T13:30:59;20.90;99.90
4651;DHT22;2338;49.602;8.722;2022-10-16T13:33:49;20.80;99.90
4651;DHT22;2338;49.602;8.722;2022-10-16T13:36:44;20.70;99.90
4651;DHT22;2338;49.602;8.722;2022-10-16T13:39:30;20.50;99.90
4651;DHT22;2338;49.602;8.722;2022-10-16T13:42:21;20.40;99.90
4651;DHT22;2338;49.602;8.722;2022-10-16T13:45:18;20.30;99.90
4651;DHT22;2338;49.602;8.722;2022-10-16T13:48:04;20.10;99.90
4651;DHT22;2338;49.602;8.722;2022-10-16T13:51:06;20.00;99.90
4651;DHT22;2338;49.602;8.722;2022-10-16T13:53:54;19.80;99.90
4651;DHT22;2338;49.602;8.722;2022-10-16T13:56:40;19.80;99.90
4651;DHT22;2338;49.602;8.722;2022-10-16T13:59:27;19.70;99.90
4651;DHT22;2338;49.602;8.722;2022-10-16T14:02:24;19.70;99.90
4651;DHT22;2338;49.602;8.722;2022-10-16T14:05:11;19.70;99.90
4651;DHT22;2338;49.602;8.722;2022-10-16T14:08:01;19.50;99.90
4651;DHT22;2338;49.602;8.722;2022-10-16T14:10:48;19.50;99.90
4651;DHT22;2338;49.602;8.722;2022-10-16T14:13:38;19.50;99.90
4651;DHT22;2338;49.602;8.722;2022-10-16T14:16:26;19.40;99.90
4651;DHT22;2338;49.602;8.722;2022-10-16T14:19:17;19.50;99.90
4651;DHT22;2338;49.602;8.722;2022-10-16T14:22:28;19.40;99.90
4651;DHT22;2338;49.602;8.722;2022-10-16T14:25:27;19.30;99.90
4651;DHT22;2338;49.602;8.722;2022-10-16T14:28:16;19.40;99.90
4651;DHT22;2338;49.602;8.722;2022-10-16T14:31:14;19.40;99.90
4651;DHT22;2338;49.602;8.722;2022-10-16T14:34:26;19.40;99.90
4651;DHT22;2338;49.602;8.722;2022-10-16T14:37:21;19.30;99.90
4651;DHT22;2338;49.602;8.722;2022-10-16T14:40:14;19.30;99.90
4651;DHT22;2338;49.602;8.722;2022-10-16T14:43:03;19.20;99.90
4651;DHT22;2338;49.602;8.722;2022-10-16T14:45:52;19.20;99.90
4651;DHT22;2338;49.602;8.722;2022-10-16T14:48:40;19.20;99.90
4651;DHT22;2338;49.602;8.722;2022-10-16T14:51:27;19.10;99.90
4651;DHT22;2338;49.602;8.722;2022-10-16T14:54:13;19.10;99.90
4651;DHT22;2338;49.602;8.722;2022-10-16T14:56:59;19.10;99.90
4651;DHT22;2338;49.602;8.722;2022-10-16T14:59:47;19.10;99.90
4651;DHT22;2338;49.602;8.722;2022-10-16T15:02:35;19.10;99.90
4651;DHT22;2338;49.602;8.722;2022-10-16T15:05:23;19.00;99.90
4651;DHT22;2338;49.602;8.722;2022-10-16T15:08:11;19.00;99.90
4651;DHT22;2338;49.602;8.722;2022-10-16T15:10:57;18.90;99.90
4651;DHT22;2338;49.602;8.722;2022-10-16T15:13:42;18.90;99.90
4651;DHT22;2338;49.602;8.722;2022-10-16T15:16:30;18.80;99.90
4651;DHT22;2338;49.602;8.722;2022-10-16T15:19:16;18.80;99.90
4651;DHT22;2338;49.602;8.722;2022-10-16T15:22:01;18.80;99.90
4651;DHT22;2338;49.602;8.722;2022-10-16T15:24:47;18.90;99.90
4651;DHT22;2338;49.602;8.722;2022-10-16T15:27:33;18.90;99.90
4651;DHT22;2338;49.602;8.722;2022-10-16T15:30:23;18.90;99.90
4651;DHT22;2338;49.602;8.722;2022-10-16T15:33:14;19.00;99.90
4651;DHT22;2338;49.602;8.722;2022-10-16T15:36:00;19.00;99.90
4651;DHT22;2338;49.602;8.722;2022-10-16T15:38:46;18.90;99.90
4651;DHT22;2338;49.602;8.722;2022-10-16T15:41:32;18.90;99.90
4651;DHT22;2338;49.602;8.722;2022-10-16T15:44:17;18.90;99.90
4651;DHT22;2338;49.602;8.722;2022-10-16T15:47:03;18.90;99.90
4651;DHT22;2338;49.602;8.722;2022-10-16T15:49:50;18.90;99.90
4651;DHT22;2338;49.602;8.722;2022-10-16T15:52:36;18.90;99.90
4651;DHT22;2338;49.602;8.722;2022-10-16T15:55:23;18.80;99.90
4651;DHT22;2338;49.602;8.722;2022-10-16T15:58:08;18.70;99.90
4651;DHT22;2338;49.602;8.722;2022-10-16T16:00:55;18.70;99.90
4651;DHT22;2338;49.602;8.722;2022-10-16T16:03:40;18.70;99.90
4651;DHT22;2338;49.602;8.722;2022-10-16T16:06:28;18.60;99.90
4651;DHT22;2338;49.602;8.722;2022-10-16T16:09:14;18.60;99.90
4651;DHT22;2338;49.602;8.722;2022-10-16T16:12:00;18.50;99.90
4651;DHT22;2338;49.602;8.722;2022-10-16T16:14:45;18.50;99.90
4651;DHT22;2338;49.602;8.722;2022-10-16T16:17:33;18.40;99.90
4651;DHT22;2338;49.602;8.722;2022-10-16T16:20:18;18.30;99.90
4651;DHT22;2338;49.602;8.722;2022-10-16T16:23:06;18.20;99.90
4651;DHT22;2338;49.602;8.722;2022-10-16T16:26:05;18.30;99.90
4651;DHT22;2338;49.602;8.722;2022-10-16T16:28:52;18.30;99.90
4651;DHT22;2338;49.602;8.722;2022-10-16T16:31:38;18.10;99.90
4651;DHT22;2338;49.602;8.722;2022-10-16T16:34:24;18.10;99.90
4651;DHT22;2338;49.602;8.722;2022-10-16T16:37:10;18.00;99.90
4651;DHT22;2338;49.602;8.722;2022-10-16T16:39:57;17.90;99.90
4651;DHT22;2338;49.602;8.722;2022-10-16T16:42:43;17.80;99.90
4651;DHT22;2338;49.602;8.722;2022-10-16T16:45:29;17.70;99.90
4651;DHT22;2338;49.602;8.722;2022-10-16T16:48:15;17.70;99.90
4651;DHT22;2338;49.602;8.722;2022-10-16T16:51:03;17.60;99.90
4651;DHT22;2338;49.602;8.722;2022-10-16T16:53:52;17.40;99.90
4651;DHT22;2338;49.602;8.722;2022-10-16T16:56:40;17.40;99.90
4651;DHT22;2338;49.602;8.722;2022-10-16T16:59:27;17.30;99.90
4651;DHT22;2338;49.602;8.722;2022-10-16T17:02:12;17.20;99.90
4651;DHT22;2338;49.602;8.722;2022-10-16T17:04:58;17.20;99.90
4651;DHT22;2338;49.602;8.722;2022-10-16T17:07:43;17.20;99.90
4651;DHT22;2338;49.602;8.722;2022-10-16T17:10:29;17.20;99.90
4651;DHT22;2338;49.602;8.722;2022-10-16T17:13:16;17.10;99.90
4651;DHT22;2338;49.602;8.722;2022-10-16T17:16:02;17.10;99.90
4651;DHT22;2338;49.602;8.722;2022-10-16T17:18:47;17.10;99.90
4651;DHT22;2338;49.602;8.722;2022-10-16T17:21:34;17.20;99.90
4651;DHT22;2338;49.602;8.722;2022-10-16T17:24:20;17.10;99.90
4651;DHT22;2338;49.602;8.722;2022-10-16T17:27:05;17.00;99.90
4651;DHT22;2338;49.602;8.722;2022-10-16T17:29:52;17.00;99.90
4651;DHT22;2338;49.602;8.722;2022-10-16T17:32:38;16.90;99.90
4651;DHT22;2338;49.602;8.722;2022-10-16T17:35:24;16.90;99.90
4651;DHT22;2338;49.602;8.722;2022-10-16T17:38:10;16.90;99.90
4651;DHT22;2338;49.602;8.722;2022-10-16T17:40:56;16.80;99.90
4651;DHT22;2338;49.602;8.722;2022-10-16T17:43:41;16.90;99.90
4651;DHT22;2338;49.602;8.722;2022-10-16T17:46:28;16.90;99.90
4651;DHT22;2338;49.602;8.722;2022-10-16T17:49:14;16.80;99.90
4651;DHT22;2338;49.602;8.722;2022-10-16T17:52:00;16.80;99.90
4651;DHT22;2338;49.602;8.722;2022-10-16T17:54:46;16.80;99.90
4651;DHT22;2338;49.602;8.722;2022-10-16T17:57:34;16.70;99.90
4651;DHT22;2338;49.602;8.722;2022-10-16T18:00:19;16.60;99.90
4651;DHT22;2338;49.602;8.722;2022-10-16T18:03:06;16.50;99.90
4651;DHT22;2338;49.602;8.722;2022-10-16T18:05:52;16.30;99.90
4651;DHT22;2338;49.602;8.722;2022-10-16T18:08:38;16.30;99.90
4651;DHT22;2338;49.602;8.722;2022-10-16T18:11:24;16.30;99.90
4651;DHT22;2338;49.602;8.722;2022-10-16T18:14:12;16.30;99.90
4651;DHT22;2338;49.602;8.722;2022-10-16T18:16:59;16.30;99.90
4651;DHT22;2338;49.602;8.722;2022-10-16T18:19:46;16.30;99.90
4651;DHT22;2338;49.602;8.722;2022-10-16T18:22:32;16.30;99.90
4651;DHT22;2338;49.602;8.722;2022-10-16T18:25:18;16.30;99.90
4651;DHT22;2338;49.602;8.722;2022-10-16T18:28:04;16.30;99.90
4651;DHT22;2338;49.602;8.722;2022-10-16T18:30:54;16.30;99.90
4651;DHT22;2338;49.602;8.722;2022-10-16T18:33:42;16.30;99.90
4651;DHT22;2338;49.602;8.722;2022-10-16T18:36:33;16.20;99.90